Time;durP1;ratioP1;P1;durP2;ratioP2;P2;SDS_P1;SDS_P2;PMS_P1;PMS_P2;Temp;Humidity;BMP_temperature;BMP_pressure;BME280_temperature;BME280_humidity;BME280_pressure;Samples;Min_cycle;Max_cycle;Signal;HPM_P1;HPM_P2
2023/11/09 00:00:26;;;;;;;15.13;9.98;;;7.90;99.90;;;;;;5030477;28;20045;-76
2023/11/09 00:02:54;;;;;;;14.98;11.70;;;8.00;99.90;;;;;;5008211;28;20099;-75
2023/11/09 00:05:22;;;;;;;13.10;9.43;;;8.00;99.90;;;;;;5011596;28;20064;-75
2023/11/09 00:07:48;;;;;;;15.35;9.68;;;8.00;99.90;;;;;;5008433;28;20090;-75
2023/11/09 00:10:15;;;;;;;12.98;8.70;;;8.00;99.90;;;;;;5044609;28;20674;-76
2023/11/09 00:12:43;;;;;;;14.05;9.90;;;8.00;99.90;;;;;;5029454;28;20037;-74
2023/11/09 00:15:10;;;;;;;12.98;7.88;;;8.00;99.90;;;;;;5029097;28;20077;-75
2023/11/09 00:17:37;;;;;;;13.73;9.23;;;8.00;99.90;;;;;;5030364;28;20177;-76
2023/11/09 00:20:06;;;;;;;10.82;8.57;;;7.90;99.90;;;;;;5029338;28;20048;-76
2023/11/09 00:22:35;;;;;;;12.88;7.90;;;7.90;99.90;;;;;;5025927;28;20051;-74
2023/11/09 00:25:02;;;;;;;13.32;7.78;;;7.90;99.90;;;;;;5030829;28;20044;-75
2023/11/09 00:27:29;;;;;;;13.85;7.68;;;7.90;99.90;;;;;;5036299;28;20041;-76
2023/11/09 00:29:55;;;;;;;17.38;8.02;;;7.90;99.90;;;;;;5025133;28;20080;-76
2023/11/09 00:32:22;;;;;;;14.45;7.65;;;7.90;99.90;;;;;;5014865;28;20056;-76
2023/11/09 00:34:49;;;;;;;10.07;7.18;;;7.90;99.90;;;;;;5025426;28;20400;-75
2023/11/09 00:37:16;;;;;;;12.63;7.63;;;7.90;99.90;;;;;;5016265;28;20053;-76
2023/11/09 00:39:45;;;;;;;10.80;8.18;;;7.90;99.90;;;;;;5025937;28;20499;-74
2023/11/09 00:42:11;;;;;;;13.23;7.57;;;7.90;99.90;;;;;;5030183;28;20041;-74
2023/11/09 00:44:39;;;;;;;10.40;7.75;;;7.90;99.90;;;;;;5028814;28;20053;-74
2023/11/09 00:47:06;;;;;;;10.77;6.65;;;7.90;99.90;;;;;;5024620;28;20049;-75
2023/11/09 00:49:33;;;;;;;10.10;7.45;;;7.90;99.90;;;;;;5032517;28;20106;-74
2023/11/09 00:52:00;;;;;;;12.13;8.23;;;7.90;99.90;;;;;;5033069;28;20132;-74
2023/11/09 00:54:27;;;;;;;12.90;7.10;;;7.90;99.90;;;;;;5037529;28;20052;-76
2023/11/09 00:56:53;;;;;;;8.07;6.25;;;7.80;99.90;;;;;;5014575;28;21197;-75
2023/11/09 00:59:20;;;;;;;10.85;7.00;;;7.80;99.90;;;;;;5021839;28;20041;-76
2023/11/09 01:01:47;;;;;;;7.65;6.10;;;7.80;99.90;;;;;;5012390;28;20041;-75
2023/11/09 01:04:14;;;;;;;8.48;7.15;;;7.80;99.90;;;;;;5029862;28;20052;-75
2023/11/09 01:06:41;;;;;;;8.50;6.05;;;7.80;99.90;;;;;;5034778;28;20487;-76
2023/11/09 01:09:08;;;;;;;7.63;6.40;;;7.90;99.90;;;;;;5036375;28;20057;-75
2023/11/09 01:11:34;;;;;;;7.53;5.78;;;7.80;99.90;;;;;;5037736;28;20041;-75
2023/11/09 01:14:01;;;;;;;9.02;6.90;;;7.80;99.90;;;;;;5036434;28;20045;-76
2023/11/09 01:16:28;;;;;;;9.30;7.07;;;7.90;99.90;;;;;;5034512;28;20048;-75
2023/11/09 01:18:55;;;;;;;10.77;6.65;;;7.80;99.90;;;;;;5032681;28;20576;-75
2023/11/09 01:21:22;;;;;;;11.25;6.00;;;7.80;99.90;;;;;;5032824;28;20048;-75
2023/11/09 01:23:49;;;;;;;7.50;6.85;;;7.80;99.90;;;;;;5031236;28;20048;-75
2023/11/09 01:26:16;;;;;;;10.25;7.55;;;7.80;99.90;;;;;;5017140;28;20122;-75
2023/11/09 01:28:42;;;;;;;8.27;6.13;;;7.80;99.90;;;;;;5026940;28;20041;-74
2023/11/09 01:31:10;;;;;;;12.35;6.82;;;7.80;99.90;;;;;;5031369;28;20061;-74
2023/11/09 01:33:37;;;;;;;8.75;7.20;;;7.80;99.90;;;;;;5030034;28;20040;-74
2023/11/09 01:36:04;;;;;;;10.75;7.63;;;7.80;99.90;;;;;;5034978;28;20119;-74
2023/11/09 01:38:31;;;;;;;12.10;7.25;;;7.80;99.90;;;;;;5029907;28;20122;-75
2023/11/09 01:40:57;;;;;;;12.05;9.05;;;7.80;99.90;;;;;;5013133;28;20729;-75
2023/11/09 01:43:25;;;;;;;10.73;7.25;;;7.90;99.90;;;;;;5036032;28;20131;-75
2023/11/09 01:45:52;;;;;;;12.18;6.45;;;7.90;99.90;;;;;;5010723;28;20559;-75
2023/11/09 01:48:20;;;;;;;14.95;8.13;;;7.90;99.90;;;;;;5038907;28;20147;-76
2023/11/09 01:50:50;;;;;;;7.75;6.68;;;7.80;99.90;;;;;;5029579;28;20337;-74
2023/11/09 01:53:17;;;;;;;6.82;6.13;;;7.80;99.90;;;;;;5037469;28;20041;-75
2023/11/09 01:55:44;;;;;;;7.95;6.63;;;7.80;99.90;;;;;;5018062;28;20048;-76
2023/11/09 01:58:12;;;;;;;7.60;6.65;;;7.80;99.90;;;;;;5034567;28;20059;-75
2023/11/09 02:00:42;;;;;;;7.82;6.80;;;7.90;99.90;;;;;;5028095;28;20123;-75
2023/11/09 02:03:10;;;;;;;9.18;7.70;;;7.90;99.90;;;;;;5032419;28;20052;-75
2023/11/09 02:05:37;;;;;;;10.18;6.72;;;7.90;99.90;;;;;;5035506;28;20051;-75
2023/11/09 02:08:05;;;;;;;10.27;6.55;;;7.80;99.90;;;;;;5017359;28;20422;-75
2023/11/09 02:10:32;;;;;;;9.35;7.05;;;7.80;99.90;;;;;;5032801;28;20140;-75
2023/11/09 02:13:01;;;;;;;9.13;8.13;;;7.90;99.90;;;;;;5029655;28;20132;-75
2023/11/09 02:15:28;;;;;;;9.32;7.10;;;8.00;99.90;;;;;;5011630;28;20044;-76
2023/11/09 02:17:56;;;;;;;11.73;6.90;;;8.00;99.90;;;;;;5012549;28;20060;-74
2023/11/09 02:20:23;;;;;;;10.00;7.25;;;7.90;99.90;;;;;;5031819;28;20033;-74
2023/11/09 02:22:53;;;;;;;8.75;7.20;;;7.90;99.90;;;;;;5015195;28;20080;-75
2023/11/09 02:25:20;;;;;;;9.43;6.90;;;7.90;99.90;;;;;;5030127;28;20049;-75
2023/11/09 02:27:47;;;;;;;8.68;6.70;;;7.90;99.90;;;;;;5013946;28;20156;-75
2023/11/09 02:30:14;;;;;;;7.57;6.82;;;8.00;99.90;;;;;;5031019;28;20078;-76
2023/11/09 02:32:42;;;;;;;8.48;6.75;;;8.00;99.90;;;;;;5029026;28;20510;-74
2023/11/09 02:35:12;;;;;;;8.57;6.78;;;8.00;99.90;;;;;;5031826;28;20041;-76
2023/11/09 02:37:38;;;;;;;7.55;6.30;;;7.90;99.90;;;;;;5030857;28;20056;-75
2023/11/09 02:40:06;;;;;;;7.05;6.35;;;8.00;99.90;;;;;;5027586;28;20045;-75
2023/11/09 02:42:33;;;;;;;9.88;6.25;;;7.90;99.90;;;;;;5026533;28;20140;-75
2023/11/09 02:45:00;;;;;;;10.35;6.07;;;7.90;99.90;;;;;;5029670;28;20045;-75
2023/11/09 02:47:27;;;;;;;11.13;6.20;;;7.90;99.90;;;;;;5028219;28;20140;-76
2023/11/09 02:49:53;;;;;;;6.47;5.40;;;7.90;99.90;;;;;;5029558;28;20130;-76
2023/11/09 02:52:20;;;;;;;10.80;6.40;;;7.90;99.90;;;;;;5026571;28;20046;-76
2023/11/09 02:54:47;;;;;;;7.00;6.40;;;8.00;99.90;;;;;;5031265;28;20627;-76
2023/11/09 02:57:14;;;;;;;6.40;5.82;;;7.90;99.90;;;;;;5033218;28;20110;-74
2023/11/09 02:59:43;;;;;;;6.45;5.85;;;7.90;99.90;;;;;;5033330;28;20649;-75
2023/11/09 03:02:10;;;;;;;8.70;5.90;;;7.90;99.90;;;;;;5031429;28;20064;-77
2023/11/09 03:04:38;;;;;;;7.13;5.95;;;7.90;99.90;;;;;;5030701;28;20152;-74
2023/11/09 03:07:08;;;;;;;6.65;5.82;;;8.00;99.90;;;;;;5029587;28;20111;-74
2023/11/09 03:09:35;;;;;;;8.40;6.03;;;7.90;99.90;;;;;;5032214;28;20681;-75
2023/11/09 03:12:05;;;;;;;6.85;5.93;;;7.90;99.90;;;;;;5026127;28;20165;-76
2023/11/09 03:14:33;;;;;;;9.68;6.10;;;7.90;99.90;;;;;;5016046;28;20037;-75
2023/11/09 03:17:06;;;;;;;7.18;6.47;;;7.90;99.90;;;;;;5027559;28;20045;-75
2023/11/09 03:19:35;;;;;;;6.75;6.13;;;7.90;99.90;;;;;;5014167;28;20573;-75
2023/11/09 03:22:10;;;;;;;6.50;5.90;;;7.90;99.90;;;;;;5028874;28;20523;-76
2023/11/09 03:24:39;;;;;;;6.35;5.80;;;7.80;99.90;;;;;;5027325;28;20077;-75
2023/11/09 03:27:09;;;;;;;7.95;7.07;;;7.80;99.90;;;;;;5012327;28;20048;-77
2023/11/09 03:29:37;;;;;;;8.35;6.82;;;7.80;99.90;;;;;;5034887;28;20140;-76
2023/11/09 03:32:06;;;;;;;8.80;7.20;;;7.80;99.90;;;;;;5026656;28;20955;-75
2023/11/09 03:34:34;;;;;;;9.50;7.60;;;7.80;99.90;;;;;;5031015;28;20373;-74
2023/11/09 03:37:01;;;;;;;7.85;6.97;;;7.80;99.90;;;;;;5030746;28;20037;-74
2023/11/09 03:39:27;;;;;;;7.95;7.18;;;7.80;99.90;;;;;;5035060;28;20044;-75
2023/11/09 03:41:54;;;;;;;17.75;8.82;;;7.80;99.90;;;;;;5015224;28;20080;-75
2023/11/09 03:44:21;;;;;;;9.25;6.53;;;7.80;99.90;;;;;;5031222;28;20480;-75
2023/11/09 03:46:51;;;;;;;8.55;6.97;;;7.70;99.90;;;;;;5026872;28;20128;-74
2023/11/09 03:49:19;;;;;;;8.25;7.32;;;7.70;99.90;;;;;;5030960;28;20045;-75
2023/11/09 03:51:46;;;;;;;10.80;8.00;;;7.80;99.90;;;;;;5033649;28;20045;-75
2023/11/09 03:54:13;;;;;;;10.75;8.18;;;7.80;99.90;;;;;;5020961;28;20443;-76
2023/11/09 03:56:40;;;;;;;13.07;8.75;;;7.80;99.90;;;;;;5016237;28;20140;-75
2023/11/09 03:59:07;;;;;;;10.32;8.48;;;7.80;99.90;;;;;;5028468;28;21389;-74
2023/11/09 04:01:35;;;;;;;12.48;8.85;;;7.70;99.90;;;;;;5033408;28;20052;-75
2023/11/09 04:04:02;;;;;;;11.82;8.02;;;7.70;99.90;;;;;;5024421;28;20045;-75
2023/11/09 04:06:29;;;;;;;10.82;8.68;;;7.70;99.90;;;;;;5023648;28;20076;-76
2023/11/09 04:08:56;;;;;;;11.57;8.55;;;7.70;99.90;;;;;;5025796;28;20045;-76
2023/11/09 04:11:22;;;;;;;12.32;8.95;;;7.60;99.90;;;;;;5048562;28;20045;-77
2023/11/09 04:13:49;;;;;;;14.18;10.82;;;7.60;99.90;;;;;;5025706;28;20071;-75
2023/11/09 04:16:16;;;;;;;13.15;10.60;;;7.60;99.90;;;;;;5027438;28;20655;-74
2023/11/09 04:18:43;;;;;;;12.15;9.63;;;7.60;99.90;;;;;;5015172;28;20041;-76
2023/11/09 04:21:10;;;;;;;15.07;11.00;;;7.60;99.90;;;;;;5024175;28;21462;-75
2023/11/09 04:23:37;;;;;;;14.35;10.93;;;7.60;99.90;;;;;;5012506;28;20045;-74
2023/11/09 04:26:08;;;;;;;12.43;10.20;;;7.60;99.90;;;;;;5008494;28;20045;-75
2023/11/09 04:28:38;;;;;;;12.35;10.00;;;7.60;99.90;;;;;;5034636;28;20057;-74
2023/11/09 04:31:05;;;;;;;16.45;10.00;;;7.60;99.90;;;;;;5026708;28;20171;-75
2023/11/09 04:33:32;;;;;;;12.60;10.60;;;7.50;99.90;;;;;;5030415;28;20199;-76
2023/11/09 04:36:05;;;;;;;16.98;11.05;;;7.50;99.90;;;;;;5009757;28;20037;-74
2023/11/09 04:38:37;;;;;;;15.73;10.60;;;7.60;99.90;;;;;;5025186;28;20049;-76
2023/11/09 04:41:09;;;;;;;15.00;11.05;;;7.60;99.90;;;;;;5025835;28;20075;-74
2023/11/09 04:43:37;;;;;;;11.50;9.82;;;7.60;99.90;;;;;;5033076;28;20084;-75
2023/11/09 04:46:11;;;;;;;12.48;10.68;;;7.60;99.90;;;;;;5023148;28;20051;-75
2023/11/09 04:48:44;;;;;;;17.75;11.70;;;7.60;99.90;;;;;;5029534;28;20669;-76
2023/11/09 04:51:20;;;;;;;16.45;11.57;;;7.60;99.90;;;;;;5024705;28;20041;-75
2023/11/09 04:53:56;;;;;;;11.63;10.10;;;7.60;99.90;;;;;;5015336;28;20277;-74
2023/11/09 04:56:39;;;;;;;18.10;11.27;;;7.60;99.90;;;;;;5026633;28;20657;-75
2023/11/09 05:07:28;;;;;;;13.90;10.50;;;7.60;99.90;;;;;;5030624;28;20037;-77
2023/11/09 05:09:56;;;;;;;17.45;10.88;;;7.50;99.90;;;;;;5028003;28;20118;-75
2023/11/09 05:12:22;;;;;;;13.63;11.68;;;7.50;99.90;;;;;;5009908;28;20056;-75
2023/11/09 05:14:51;;;;;;;16.77;11.93;;;7.60;99.90;;;;;;5031139;28;20060;-76
2023/11/09 05:17:19;;;;;;;13.57;10.73;;;7.60;99.90;;;;;;5025400;28;20048;-75
2023/11/09 05:19:46;;;;;;;12.50;10.50;;;7.60;99.90;;;;;;5031274;28;20128;-74
2023/11/09 05:22:15;;;;;;;14.10;10.70;;;7.60;99.90;;;;;;5024777;28;21241;-76
2023/11/09 05:24:42;;;;;;;14.18;10.65;;;7.60;99.90;;;;;;5027513;28;20473;-76
2023/11/09 05:27:10;;;;;;;11.75;9.25;;;7.70;99.90;;;;;;5019572;28;20064;-75
2023/11/09 05:29:38;;;;;;;12.43;10.30;;;7.60;99.90;;;;;;5032689;28;20057;-75
2023/11/09 05:32:08;;;;;;;11.65;9.75;;;7.70;99.90;;;;;;5025393;28;20637;-75
2023/11/09 05:34:36;;;;;;;10.98;9.88;;;7.60;99.90;;;;;;5036368;28;20509;-75
2023/11/09 05:37:03;;;;;;;9.82;8.60;;;7.70;99.90;;;;;;5011740;28;20133;-76
2023/11/09 05:39:31;;;;;;;11.35;9.40;;;7.70;99.90;;;;;;5030250;28;20450;-76
2023/11/09 05:41:59;;;;;;;10.85;9.05;;;7.60;99.90;;;;;;5029466;28;20303;-76
2023/11/09 05:44:27;;;;;;;11.65;9.30;;;7.60;99.90;;;;;;5035100;28;20065;-76
2023/11/09 05:46:54;;;;;;;13.07;9.20;;;7.70;99.90;;;;;;5027705;28;20052;-76
2023/11/09 05:49:22;;;;;;;12.50;9.60;;;7.70;99.90;;;;;;5027283;28;20049;-76
2023/11/09 05:51:50;;;;;;;12.63;9.68;;;7.70;99.90;;;;;;5021726;28;20045;-75
2023/11/09 05:54:17;;;;;;;10.57;9.52;;;7.70;99.90;;;;;;5017152;28;20085;-75
2023/11/09 05:56:45;;;;;;;13.38;9.75;;;7.80;99.90;;;;;;5008704;28;20053;-76
2023/11/09 05:59:15;;;;;;;10.93;9.38;;;7.80;99.90;;;;;;5022229;28;20041;-77
2023/11/09 06:01:44;;;;;;;10.45;9.45;;;7.80;99.90;;;;;;5023768;28;20436;-76
2023/11/09 06:04:12;;;;;;;9.48;8.48;;;7.80;99.90;;;;;;5023545;28;20073;-78
2023/11/09 06:06:38;;;;;;;10.77;9.05;;;7.80;99.90;;;;;;5024438;28;20152;-78
2023/11/09 06:09:10;;;;;;;10.98;9.77;;;7.80;99.90;;;;;;5007705;28;20679;-77
2023/11/09 06:11:37;;;;;;;11.40;9.13;;;7.80;99.90;;;;;;5025033;28;20435;-75
2023/11/09 06:14:04;;;;;;;9.73;8.73;;;7.80;99.90;;;;;;5023985;28;20691;-78
2023/11/09 06:16:32;;;;;;;11.32;9.57;;;7.90;99.90;;;;;;5025254;28;20051;-78
2023/11/09 06:19:02;;;;;;;9.85;8.85;;;7.90;99.90;;;;;;5025036;28;20099;-77
2023/11/09 06:21:29;;;;;;;10.55;9.55;;;7.90;99.90;;;;;;5030557;28;20045;-78
2023/11/09 06:23:56;;;;;;;12.45;10.10;;;7.90;99.90;;;;;;5020395;28;20048;-78
2023/11/09 06:26:24;;;;;;;10.73;9.63;;;7.90;99.90;;;;;;5027683;28;20516;-77
2023/11/09 06:28:52;;;;;;;14.45;9.93;;;7.90;99.90;;;;;;5022663;28;20045;-77
2023/11/09 06:31:21;;;;;;;14.68;10.80;;;7.90;99.90;;;;;;5027942;28;20057;-78
2023/11/09 06:33:51;;;;;;;11.05;10.00;;;8.00;99.90;;;;;;5026460;28;20069;-76
2023/11/09 06:36:22;;;;;;;10.10;9.05;;;7.90;99.90;;;;;;5021202;28;20136;-76
2023/11/09 06:38:49;;;;;;;11.20;10.10;;;8.00;99.90;;;;;;5026424;28;20037;-76
2023/11/09 06:41:16;;;;;;;12.32;10.02;;;7.90;99.90;;;;;;5007210;28;20283;-76
2023/11/09 06:43:43;;;;;;;12.05;10.85;;;7.90;99.90;;;;;;5022882;28;20134;-76
2023/11/09 06:46:10;;;;;;;11.63;9.40;;;7.90;99.90;;;;;;5011012;28;20055;-77
2023/11/09 06:48:38;;;;;;;11.13;8.95;;;7.90;99.90;;;;;;5041692;28;20275;-78
2023/11/09 06:51:05;;;;;;;9.98;8.73;;;7.90;99.90;;;;;;5042480;28;20111;-76
2023/11/09 06:53:31;;;;;;;10.55;9.65;;;8.00;99.90;;;;;;5029635;28;20556;-77
2023/11/09 06:55:59;;;;;;;10.18;9.27;;;7.90;99.90;;;;;;5029455;28;20061;-77
2023/11/09 06:58:26;;;;;;;12.00;10.90;;;7.90;99.90;;;;;;5026372;28;20676;-77
2023/11/09 07:00:54;;;;;;;12.80;10.57;;;7.90;99.90;;;;;;5029935;28;20029;-77
2023/11/09 07:03:22;;;;;;;10.23;9.32;;;7.90;99.90;;;;;;5022313;28;20898;-77
2023/11/09 07:05:49;;;;;;;10.05;9.15;;;7.90;99.90;;;;;;5013908;28;20591;-79
2023/11/09 07:08:16;;;;;;;9.43;8.55;;;7.90;99.90;;;;;;5021378;28;20041;-77
2023/11/09 07:10:43;;;;;;;10.75;9.38;;;7.90;99.90;;;;;;5052710;28;20044;-78
2023/11/09 07:13:10;;;;;;;11.07;8.88;;;7.90;99.90;;;;;;5025146;28;20056;-77
2023/11/09 07:15:39;;;;;;;9.75;8.93;;;7.90;99.90;;;;;;5030075;28;20045;-77
2023/11/09 07:18:06;;;;;;;10.40;9.27;;;7.90;99.90;;;;;;5014746;28;20062;-78
2023/11/09 07:20:33;;;;;;;13.82;10.38;;;7.90;99.90;;;;;;5027382;28;20056;-78
2023/11/09 07:23:06;;;;;;;12.25;10.55;;;7.90;99.90;;;;;;5013286;28;20041;-77
2023/11/09 07:25:36;;;;;;;12.10;10.40;;;7.90;99.90;;;;;;5032757;28;20056;-78
2023/11/09 07:28:04;;;;;;;13.60;10.27;;;7.90;99.90;;;;;;5033270;28;20045;-77
2023/11/09 07:31:05;;;;;;;11.25;9.85;;;7.90;99.90;;;;;;5028908;28;20053;-77
2023/11/09 07:33:39;;;;;;;9.82;8.57;;;8.00;99.90;;;;;;5021406;28;20052;-76
2023/11/09 07:36:09;;;;;;;9.45;8.45;;;8.00;99.90;;;;;;5017330;28;20044;-75
2023/11/09 07:38:36;;;;;;;10.52;9.13;;;7.90;99.90;;;;;;5021192;28;20055;-75
2023/11/09 07:41:03;;;;;;;12.20;10.93;;;7.90;99.90;;;;;;5037892;28;20041;-75
2023/11/09 07:43:31;;;;;;;10.85;9.85;;;7.90;99.90;;;;;;5029481;28;20068;-76
2023/11/09 07:45:58;;;;;;;9.52;8.68;;;8.00;99.90;;;;;;5025320;28;20126;-76
2023/11/09 07:48:26;;;;;;;10.43;9.48;;;8.00;99.90;;;;;;5025483;28;20418;-76
2023/11/09 07:50:54;;;;;;;9.85;8.80;;;8.00;99.90;;;;;;5014440;28;20706;-75
2023/11/09 07:53:21;;;;;;;11.45;10.45;;;8.00;99.90;;;;;;5018593;28;20072;-74
2023/11/09 07:55:51;;;;;;;11.18;10.07;;;8.00;99.90;;;;;;5024570;28;20124;-75
2023/11/09 07:58:19;;;;;;;13.50;10.48;;;8.00;99.90;;;;;;5015207;28;20143;-75
2023/11/09 08:00:46;;;;;;;11.80;10.52;;;8.00;99.90;;;;;;5027018;28;20049;-74
2023/11/09 08:03:14;;;;;;;19.25;11.35;;;8.00;99.90;;;;;;5003920;28;20099;-74
2023/11/09 08:05:41;;;;;;;12.50;11.30;;;7.90;99.90;;;;;;5024751;28;20053;-75
2023/11/09 08:08:11;;;;;;;11.15;10.02;;;8.00;99.90;;;;;;5029777;28;20056;-75
2023/11/09 08:10:38;;;;;;;10.57;9.60;;;7.90;99.90;;;;;;5019783;28;20055;-74
2023/11/09 08:13:08;;;;;;;13.90;12.50;;;8.00;99.90;;;;;;5023193;28;20383;-74
2023/11/09 08:15:35;;;;;;;13.38;12.13;;;8.00;99.90;;;;;;5019067;28;20122;-74
2023/11/09 08:18:02;;;;;;;16.52;14.20;;;8.00;99.90;;;;;;5010557;28;20041;-73
2023/11/09 08:20:30;;;;;;;17.67;12.85;;;8.10;99.90;;;;;;4999516;28;20136;-75
2023/11/09 08:22:56;;;;;;;12.98;11.43;;;8.10;99.90;;;;;;5009715;28;20041;-75
2023/11/09 08:25:23;;;;;;;11.38;10.27;;;8.10;99.90;;;;;;4998103;28;20630;-76
2023/11/09 08:27:53;;;;;;;11.52;10.23;;;8.10;99.90;;;;;;5005122;28;20069;-75
2023/11/09 08:30:26;;;;;;;13.10;10.77;;;8.00;99.90;;;;;;5013574;28;20135;-75
2023/11/09 08:32:55;;;;;;;11.27;10.00;;;8.00;99.90;;;;;;5024052;28;20053;-74
2023/11/09 08:35:24;;;;;;;12.57;10.77;;;8.00;99.90;;;;;;5019214;28;20049;-75
2023/11/09 08:37:55;;;;;;;11.40;10.18;;;8.00;99.90;;;;;;5024075;28;20718;-74
2023/11/09 08:40:27;;;;;;;12.75;10.32;;;8.00;99.90;;;;;;5000504;28;20041;-75
2023/11/09 08:42:57;;;;;;;12.15;10.88;;;8.00;99.90;;;;;;5007158;28;20049;-74
2023/11/09 08:45:27;;;;;;;14.60;10.75;;;8.00;99.90;;;;;;5014299;28;20049;-74
2023/11/09 08:47:55;;;;;;;12.88;11.50;;;8.00;99.90;;;;;;5025542;28;20041;-74
2023/11/09 08:50:24;;;;;;;13.45;9.68;;;7.90;99.90;;;;;;5015679;28;20050;-74
2023/11/09 08:52:54;;;;;;;14.38;10.68;;;7.90;99.90;;;;;;5027623;28;20049;-74
2023/11/09 08:55:22;;;;;;;13.18;11.75;;;7.90;99.90;;;;;;5019275;28;20037;-73
2023/11/09 08:57:50;;;;;;;15.23;11.63;;;8.00;99.90;;;;;;5021521;28;20041;-74
2023/11/09 09:00:18;;;;;;;16.10;12.60;;;8.00;99.90;;;;;;5016219;28;20673;-74
2023/11/09 09:02:48;;;;;;;15.52;12.23;;;8.00;99.90;;;;;;5016634;28;20037;-74
2023/11/09 09:05:19;;;;;;;13.93;11.00;;;8.00;99.90;;;;;;5014517;28;20049;-75
2023/11/09 09:07:49;;;;;;;14.18;10.93;;;8.00;99.90;;;;;;5024830;28;20136;-74
2023/11/09 09:10:20;;;;;;;15.30;12.00;;;8.00;99.90;;;;;;5021754;28;20121;-75
2023/11/09 09:12:51;;;;;;;13.15;11.68;;;8.00;99.90;;;;;;5016729;28;20049;-74
2023/11/09 09:15:19;;;;;;;12.38;10.68;;;8.10;99.90;;;;;;5016349;28;20071;-73
2023/11/09 09:17:48;;;;;;;11.82;10.63;;;8.00;99.90;;;;;;5027087;28;20053;-74
2023/11/09 09:20:19;;;;;;;12.43;10.88;;;8.10;99.90;;;;;;5003464;28;20146;-75
2023/11/09 09:22:49;;;;;;;11.55;10.35;;;8.20;99.90;;;;;;5021543;28;20046;-75
2023/11/09 09:25:16;;;;;;;10.93;9.82;;;8.10;99.90;;;;;;5019577;28;20055;-75
2023/11/09 09:27:46;;;;;;;11.98;9.55;;;8.10;99.90;;;;;;5018475;28;20076;-75
2023/11/09 09:30:21;;;;;;;10.23;9.25;;;8.10;99.90;;;;;;5014607;28;20449;-73
2023/11/09 09:32:50;;;;;;;8.60;7.78;;;8.10;99.90;;;;;;5021610;28;20526;-74
2023/11/09 09:35:23;;;;;;;9.98;9.10;;;8.10;99.90;;;;;;5017527;28;20104;-74
2023/11/09 09:37:53;;;;;;;9.68;8.80;;;8.20;99.90;;;;;;5024800;28;20465;-74
2023/11/09 09:40:23;;;;;;;8.80;7.97;;;8.20;99.90;;;;;;5020655;28;20515;-75
2023/11/09 09:43:02;;;;;;;7.78;7.07;;;8.20;99.90;;;;;;5027055;28;20043;-74
2023/11/09 09:45:33;;;;;;;14.40;8.45;;;8.20;99.90;;;;;;5015934;28;20044;-73
2023/11/09 09:48:01;;;;;;;12.20;9.27;;;8.20;99.90;;;;;;5023150;28;20049;-74
2023/11/09 09:50:33;;;;;;;8.50;7.75;;;8.20;99.90;;;;;;5016399;28;20131;-74
2023/11/09 09:53:02;;;;;;;11.88;10.85;;;8.20;99.90;;;;;;5010771;28;20715;-74
2023/11/09 09:55:29;;;;;;;9.55;8.75;;;8.30;99.90;;;;;;5014100;28;20053;-73
2023/11/09 09:57:59;;;;;;;11.10;10.10;;;8.40;99.90;;;;;;5029063;28;20472;-75
2023/11/09 10:00:26;;;;;;;14.98;13.38;;;8.60;99.90;;;;;;5022156;28;20060;-75
2023/11/09 10:02:59;;;;;;;7.43;6.82;;;8.60;99.90;;;;;;5024976;28;20646;-74
2023/11/09 10:05:27;;;;;;;6.75;6.20;;;8.60;99.90;;;;;;5025246;28;20077;-74
2023/11/09 10:08:07;;;;;;;5.07;4.78;;;8.60;99.90;;;;;;5027322;28;20048;-75
2023/11/09 10:10:44;;;;;;;5.72;5.15;;;8.70;99.90;;;;;;5020677;28;20661;-75
2023/11/09 10:13:14;;;;;;;7.85;7.05;;;8.70;99.90;;;;;;5022299;28;20636;-73
2023/11/09 10:15:43;;;;;;;7.18;6.68;;;8.70;99.90;;;;;;5026216;28;20040;-74
2023/11/09 10:18:12;;;;;;;6.05;5.65;;;8.80;99.90;;;;;;5028043;28;20542;-75
2023/11/09 10:20:42;;;;;;;5.70;5.30;;;8.90;99.90;;;;;;5013577;28;20040;-75
2023/11/09 10:23:14;;;;;;;7.70;7.03;;;8.90;99.90;;;;;;5029775;28;20041;-74
2023/11/09 10:25:41;;;;;;;6.20;5.80;;;8.90;99.90;;;;;;5025981;28;20404;-75
2023/11/09 10:28:13;;;;;;;16.08;13.15;;;8.90;99.90;;;;;;5004976;28;20524;-75
2023/11/09 10:30:45;;;;;;;6.57;6.28;;;9.00;99.90;;;;;;5027158;28;20052;-75
2023/11/09 10:33:13;;;;;;;7.50;7.00;;;9.00;99.90;;;;;;5029310;28;20499;-74
2023/11/09 10:35:41;;;;;;;7.70;7.10;;;9.00;99.90;;;;;;5027113;28;20567;-75
2023/11/09 10:38:12;;;;;;;10.02;8.88;;;9.10;99.90;;;;;;5030576;28;20045;-75
2023/11/09 10:40:43;;;;;;;8.00;7.50;;;9.10;99.90;;;;;;5022124;28;20045;-76
2023/11/09 10:43:33;;;;;;;8.38;7.88;;;9.10;99.90;;;;;;5021870;28;20037;-74
2023/11/09 10:46:04;;;;;;;9.15;8.50;;;9.10;99.90;;;;;;5027974;28;20033;-75
2023/11/09 10:48:35;;;;;;;6.88;6.57;;;9.20;99.90;;;;;;5024177;28;20721;-75
2023/11/09 10:51:03;;;;;;;7.53;7.13;;;9.20;99.90;;;;;;5028815;28;20043;-74
2023/11/09 10:53:32;;;;;;;8.13;7.70;;;9.20;99.90;;;;;;5017954;28;20041;-75
2023/11/09 10:56:01;;;;;;;7.75;7.35;;;9.20;99.90;;;;;;5032854;28;20095;-74
2023/11/09 10:58:33;;;;;;;8.05;7.65;;;9.20;99.90;;;;;;5020003;28;20128;-75
2023/11/09 11:01:02;;;;;;;8.73;6.60;;;9.20;99.90;;;;;;5026550;28;20037;-74
2023/11/09 11:03:35;;;;;;;7.10;6.80;;;9.20;99.90;;;;;;5022209;28;20611;-75
2023/11/09 11:06:04;;;;;;;8.18;7.78;;;9.20;99.90;;;;;;5024277;28;20061;-75
2023/11/09 11:08:38;;;;;;;7.97;7.57;;;9.30;99.90;;;;;;5028530;28;20021;-75
2023/11/09 11:11:06;;;;;;;8.45;8.05;;;9.20;99.90;;;;;;5025441;28;20103;-74
2023/11/09 11:13:35;;;;;;;7.90;7.57;;;9.30;99.90;;;;;;5022755;28;20053;-74
2023/11/09 11:16:32;;;;;;;8.30;7.90;;;9.30;99.90;;;;;;5008345;28;20044;-74
2023/11/09 11:19:18;;;;;;;8.00;7.50;;;9.30;99.90;;;;;;5018586;28;20094;-75
2023/11/09 11:22:16;;;;;;;9.18;8.77;;;9.30;99.90;;;;;;5015517;28;20048;-74
2023/11/09 11:25:16;;;;;;;10.10;9.70;;;9.40;99.90;;;;;;4986568;28;20049;-74
2023/11/09 11:27:56;;;;;;;10.25;9.75;;;9.30;99.90;;;;;;5026243;28;20069;-75
2023/11/09 11:30:29;;;;;;;10.40;9.98;;;9.40;99.90;;;;;;5040760;28;20272;-75
2023/11/09 11:32:57;;;;;;;12.13;11.63;;;9.40;99.90;;;;;;5030397;28;20403;-75
2023/11/09 11:35:43;;;;;;;11.55;10.90;;;9.40;99.90;;;;;;5016507;28;20138;-75
2023/11/09 11:38:14;;;;;;;12.52;11.93;;;9.40;99.90;;;;;;5006626;28;20057;-73
2023/11/09 11:40:46;;;;;;;16.27;15.07;;;9.40;99.90;;;;;;5008477;28;20049;-74
2023/11/09 11:43:15;;;;;;;13.45;12.55;;;9.40;99.90;;;;;;5024260;28;20079;-74
2023/11/09 11:45:43;;;;;;;12.30;11.70;;;9.40;99.90;;;;;;5015976;28;20049;-74
2023/11/09 11:48:27;;;;;;;11.70;11.20;;;9.40;99.90;;;;;;5026288;28;20051;-74
2023/11/09 11:51:06;;;;;;;10.90;10.40;;;9.40;99.90;;;;;;5022243;28;20091;-74
2023/11/09 11:53:34;;;;;;;11.90;11.18;;;9.40;99.90;;;;;;5016522;28;20115;-74
2023/11/09 11:56:10;;;;;;;10.75;10.15;;;9.40;99.90;;;;;;5019927;28;20116;-73
2023/11/09 11:58:48;;;;;;;10.65;10.20;;;9.40;99.90;;;;;;5010502;28;20053;-74
2023/11/09 12:01:29;;;;;;;14.68;13.63;;;9.40;99.90;;;;;;5025677;28;20492;-75
2023/11/09 12:04:06;;;;;;;11.93;11.15;;;9.40;99.90;;;;;;5028647;28;20207;-78
2023/11/09 12:06:37;;;;;;;10.35;9.88;;;9.40;99.90;;;;;;5012234;28;20419;-78
2023/11/09 12:09:09;;;;;;;9.60;9.07;;;9.40;99.90;;;;;;5031665;28;20045;-77
2023/11/09 12:11:43;;;;;;;9.50;9.00;;;9.40;99.90;;;;;;5018588;28;20056;-74
2023/11/09 12:14:13;;;;;;;8.75;8.35;;;9.40;99.90;;;;;;5029850;28;20599;-75
2023/11/09 12:16:40;;;;;;;11.60;10.68;;;9.40;99.90;;;;;;5026833;28;20181;-76
2023/11/09 12:19:11;;;;;;;8.93;8.55;;;9.40;99.90;;;;;;5024412;28;20072;-76
2023/11/09 12:21:41;;;;;;;11.80;10.90;;;9.40;99.90;;;;;;5026572;28;20611;-77
2023/11/09 12:24:12;;;;;;;9.18;8.82;;;9.50;99.90;;;;;;5028573;28;20527;-74
2023/11/09 12:26:41;;;;;;;9.25;8.77;;;9.40;99.90;;;;;;5042492;28;20659;-75
2023/11/09 12:29:09;;;;;;;7.70;7.40;;;9.50;99.90;;;;;;5030531;28;20041;-76
2023/11/09 12:31:49;;;;;;;13.48;12.57;;;9.50;99.90;;;;;;5025948;28;20044;-81
2023/11/09 12:35:01;;;;;;;11.32;10.57;;;9.50;99.90;;;;;;5030541;28;20045;-80
2023/11/09 12:37:37;;;;;;;29.75;26.67;;;9.50;99.90;;;;;;5011654;28;20041;-75
2023/11/09 12:40:31;;;;;;;11.80;10.93;;;9.50;99.90;;;;;;5035033;28;20060;-77
2023/11/09 12:42:59;;;;;;;51.25;41.45;;;9.50;99.90;;;;;;5039618;28;20099;-81
2023/11/09 12:45:26;;;;;;;20.90;18.88;;;9.40;99.90;;;;;;5030162;28;20460;-72
2023/11/09 12:47:55;;;;;;;13.60;12.20;;;9.40;99.90;;;;;;5033685;28;20056;-73
2023/11/09 12:50:22;;;;;;;11.23;10.13;;;9.30;99.90;;;;;;5018196;28;20049;-72
2023/11/09 12:52:49;;;;;;;17.77;16.00;;;9.30;99.90;;;;;;5028222;28;20045;-74
2023/11/09 12:55:17;;;;;;;6.57;6.00;;;9.20;99.90;;;;;;5030665;28;20546;-74
2023/11/09 12:57:44;;;;;;;7.70;7.10;;;9.30;99.90;;;;;;5020465;28;20107;-74
2023/11/09 13:00:20;;;;;;;11.93;10.02;;;9.30;99.90;;;;;;5030345;28;20103;-74
2023/11/09 13:02:47;;;;;;;10.55;9.35;;;9.40;99.90;;;;;;5023705;28;20989;-73
2023/11/09 13:05:18;;;;;;;9.18;8.68;;;9.40;99.90;;;;;;5031455;28;20635;-76
2023/11/09 13:07:55;;;;;;;9.23;8.73;;;9.40;99.90;;;;;;5023937;28;20228;-75